createdAt,value
2019-01-31T00:01:32.233Z,79.32
2019-01-31T00:04:30.051Z,79.12
2019-01-31T00:07:28.928Z,79.29
2019-01-31T00:10:09.336Z,79.37
2019-01-31T00:13:13.071Z,79.24
2019-01-31T00:16:31.816Z,79.18
2019-01-31T00:19:26.979Z,79.69
2019-01-31T00:22:44.827Z,79.49
2019-01-31T00:25:44.397Z,79.93
2019-01-31T00:28:42.222Z,79.57
2019-01-31T00:31:40.732Z,79.44
2019-01-31T00:34:43.925Z,79.56
2019-01-31T00:37:45.306Z,79.63
2019-01-31T00:40:42.263Z,79.17
2019-01-31T00:43:52.063Z,79.94
2019-01-31T00:46:54.126Z,79.84
2019-01-31T00:50:17.899Z,80.06
2019-01-31T00:53:28.564Z,80.48
2019-01-31T00:56:28.729Z,80.86
2019-01-31T00:59:23.275Z,80.56
2019-01-31T01:02:25.578Z,80.52
2019-01-31T01:05:39.132Z,80.71
2019-01-31T01:08:36.321Z,80.71
2019-01-31T01:11:43.485Z,81.01
2019-01-31T01:14:53.423Z,80.95
2019-01-31T01:17:52.809Z,80.89
2019-01-31T01:20:57.495Z,80.94
2019-01-31T01:23:33.553Z,80.79
2019-01-31T01:26:43.522Z,80.79
2019-01-31T01:29:44.034Z,80.90
2019-01-31T01:32:29.146Z,80.70
2019-01-31T01:35:26.904Z,80.69
2019-01-31T01:38:59.360Z,80.81
2019-01-31T01:42:18.276Z,80.86
2019-01-31T01:45:29.205Z,80.65
2019-01-31T01:48:33.364Z,80.23
2019-01-31T01:51:31.345Z,80.70
2019-01-31T01:54:27.623Z,80.75
2019-01-31T01:57:18.765Z,80.36
2019-01-31T02:00:27.390Z,80.18
2019-01-31T02:03:50.167Z,80.30
2019-01-31T02:06:33.615Z,80.42
2019-01-31T02:09:44.846Z,80.24
2019-01-31T02:12:55.267Z,80.34
2019-01-31T02:15:49.677Z,80.20
2019-01-31T02:18:34.843Z,80.74
2019-01-31T02:21:38.482Z,80.93
2019-01-31T02:24:25.420Z,81.00
2019-01-31T02:27:22.213Z,81.30
2019-01-31T02:30:36.567Z,81.04
2019-01-31T02:33:33.884Z,81.16
2019-01-31T02:36:41.420Z,81.28
2019-01-31T02:39:43.146Z,81.17
2019-01-31T02:42:52.944Z,81.58
2019-01-31T02:46:01.156Z,81.63
2019-01-31T02:48:58.942Z,81.73
2019-01-31T02:52:28.132Z,81.81
2019-01-31T02:55:23.699Z,82.09
2019-01-31T02:58:43.356Z,81.99
2019-01-31T03:01:53.065Z,81.92
2019-01-31T03:05:16.133Z,82.12
2019-01-31T03:08:35.292Z,81.78
2019-01-31T03:11:14.844Z,81.93
2019-01-31T03:14:14.524Z,81.87
2019-01-31T03:17:50.294Z,81.46
2019-01-31T03:21:10.892Z,81.67
2019-01-31T03:24:29.069Z,82.03
2019-01-31T03:27:28.438Z,82.30
2019-01-31T03:30:38.697Z,82.19
2019-01-31T03:33:22.798Z,82.25
2019-01-31T03:36:29.974Z,82.24
2019-01-31T03:39:40.281Z,82.27
2019-01-31T03:42:44.075Z,82.24
2019-01-31T03:45:39.297Z,82.14
2019-01-31T03:48:44.060Z,82.02
2019-01-31T03:52:03.122Z,81.87
2019-01-31T03:54:51.984Z,82.17
2019-01-31T03:57:57.500Z,82.30
2019-01-31T04:01:20.765Z,82.44
2019-01-31T04:04:02.719Z,82.58
2019-01-31T04:06:35.963Z,82.60
2019-01-31T04:09:10.955Z,82.90
2019-01-31T04:11:41.189Z,82.87
2019-01-31T04:14:11.518Z,83.16
2019-01-31T04:16:41.873Z,83.31
2019-01-31T04:19:13.663Z,83.31
2019-01-31T04:21:43.989Z,83.06
2019-01-31T04:24:15.788Z,83.17
2019-01-31T04:26:47.446Z,83.28
2019-01-31T04:29:19.700Z,83.27
2019-01-31T04:31:50.992Z,83.26
2019-01-31T04:34:22.304Z,83.37
2019-01-31T04:36:52.618Z,83.13
2019-01-31T04:39:22.888Z,82.97
2019-01-31T04:41:53.180Z,83.13
2019-01-31T04:44:24.955Z,83.18
2019-01-31T04:46:56.578Z,83.19
2019-01-31T04:49:27.263Z,82.84
2019-01-31T04:51:57.536Z,83.14
2019-01-31T04:54:27.798Z,83.13
2019-01-31T04:56:59.362Z,83.17
2019-01-31T04:59:29.666Z,83.46
2019-01-31T05:02:02.303Z,83.39
2019-01-31T05:04:33.044Z,83.23
2019-01-31T05:07:04.468Z,83.38
2019-01-31T05:09:36.468Z,83.33
2019-01-31T05:12:06.903Z,83.37
2019-01-31T05:14:37.260Z,83.28
2019-01-31T05:17:07.542Z,83.50
2019-01-31T05:19:39.467Z,83.59
2019-01-31T05:22:09.846Z,83.50
2019-01-31T05:24:40.149Z,83.51
2019-01-31T05:27:15.468Z,83.57
2019-01-31T05:29:45.848Z,83.66
2019-01-31T05:32:16.266Z,83.72
2019-01-31T05:34:46.682Z,84.07
2019-01-31T05:37:16.995Z,83.65
2019-01-31T05:39:47.270Z,83.84
2019-01-31T05:42:17.668Z,83.76
2019-01-31T05:44:48.303Z,83.66
2019-01-31T05:47:20.396Z,83.76
2019-01-31T05:49:50.708Z,83.62
2019-01-31T05:52:21.509Z,83.62
2019-01-31T05:54:51.754Z,83.38
2019-01-31T05:57:22.106Z,83.56
2019-01-31T05:59:52.810Z,83.65
2019-01-31T06:02:23.820Z,83.67
2019-01-31T06:04:54.062Z,83.48
2019-01-31T06:07:26.793Z,83.48
2019-01-31T06:09:57.330Z,83.84
2019-01-31T06:12:27.928Z,84.05
2019-01-31T06:14:58.298Z,83.85
2019-01-31T06:17:28.880Z,83.91
2019-01-31T06:19:59.183Z,83.90
2019-01-31T06:22:29.633Z,83.86
2019-01-31T06:25:00.017Z,84.13
2019-01-31T06:27:30.732Z,84.20
2019-01-31T06:30:03.898Z,84.39
2019-01-31T06:32:35.659Z,84.59
2019-01-31T06:35:08.384Z,84.73
2019-01-31T06:37:38.690Z,84.36
2019-01-31T06:40:11.642Z,84.27
2019-01-31T06:42:41.923Z,84.02
2019-01-31T06:45:15.218Z,84.33
2019-01-31T06:47:45.743Z,84.52
2019-01-31T06:50:16.539Z,84.59
2019-01-31T06:52:47.013Z,84.63
2019-01-31T06:55:17.862Z,84.46
2019-01-31T06:57:48.492Z,84.57
2019-01-31T07:00:22.474Z,84.62
2019-01-31T07:02:52.750Z,84.70
2019-01-31T07:05:23.032Z,84.67
2019-01-31T07:07:53.353Z,84.75
2019-01-31T07:10:26.363Z,84.98
2019-01-31T07:12:56.671Z,84.92
2019-01-31T07:15:27.607Z,84.76
2019-01-31T07:17:59.289Z,84.72
2019-01-31T07:20:34.396Z,84.89
2019-01-31T07:23:05.803Z,84.87
2019-01-31T07:25:36.278Z,84.88
2019-01-31T07:28:21.462Z,84.71
2019-01-31T07:30:52.229Z,84.82
2019-01-31T07:33:22.624Z,84.54
2019-01-31T07:35:52.909Z,84.48
2019-01-31T07:38:23.186Z,84.61
2019-01-31T07:40:53.456Z,84.75
2019-01-31T07:43:23.968Z,84.50
2019-01-31T07:45:54.203Z,84.36
2019-01-31T07:48:24.541Z,84.53
2019-01-31T07:50:54.982Z,84.10
2019-01-31T07:53:25.239Z,84.14
2019-01-31T07:55:55.493Z,83.82
2019-01-31T07:58:25.795Z,84.03
2019-01-31T08:01:03.326Z,83.82
2019-01-31T08:03:40.822Z,83.83
2019-01-31T08:06:18.166Z,83.45
2019-01-31T08:08:52.700Z,83.51
2019-01-31T08:11:23.774Z,83.44
2019-01-31T08:14:01.798Z,83.19
2019-01-31T08:16:39.742Z,83.13
2019-01-31T08:19:13.763Z,83.20
2019-01-31T08:21:46.339Z,82.52
2019-01-31T08:24:16.760Z,82.15
2019-01-31T08:26:50.414Z,81.73
2019-01-31T08:29:20.946Z,81.53
2019-01-31T08:31:51.388Z,81.00
2019-01-31T08:34:23.220Z,80.92
2019-01-31T08:36:53.521Z,80.38
2019-01-31T08:39:23.954Z,79.71
2019-01-31T08:42:03.497Z,78.69
2019-01-31T08:44:26.348Z,77.61
2019-01-31T08:46:56.751Z,77.74
2019-01-31T08:49:28.335Z,77.01
2019-01-31T08:51:58.582Z,77.05
2019-01-31T08:54:28.879Z,76.34
2019-01-31T08:57:01.459Z,75.25
2019-01-31T08:59:34.752Z,74.63
2019-01-31T09:02:05.193Z,73.91
2019-01-31T09:04:35.966Z,74.29
2019-01-31T09:07:06.315Z,73.83
2019-01-31T09:09:36.792Z,73.83
2019-01-31T09:12:14.948Z,75.02
2019-01-31T09:14:39.643Z,74.41
2019-01-31T09:17:10.100Z,74.46
2019-01-31T09:19:40.339Z,73.95
2019-01-31T09:22:34.689Z,73.38
2019-01-31T09:25:32.061Z,73.63
2019-01-31T09:28:46.233Z,72.85
2019-01-31T09:32:05.101Z,72.54
2019-01-31T09:35:22.092Z,73.66
2019-01-31T09:38:35.517Z,73.52
2019-01-31T09:41:29.927Z,73.11
2019-01-31T09:44:35.712Z,72.93
2019-01-31T09:48:07.877Z,72.50
2019-01-31T09:51:26.434Z,72.39
2019-01-31T09:54:31.390Z,72.07
2019-01-31T09:57:26.287Z,71.39
2019-01-31T10:00:47.564Z,67.94
2019-01-31T10:04:02.731Z,60.16
2019-01-31T10:07:06.102Z,56.89
2019-01-31T10:10:05.737Z,52.14
2019-01-31T10:13:13.364Z,46.90
2019-01-31T10:16:24.739Z,50.57
2019-01-31T10:19:16.967Z,50.16
2019-01-31T10:22:34.283Z,58.82
2019-01-31T10:25:46.990Z,55.86
2019-01-31T10:28:54.101Z,55.14
2019-01-31T10:31:51.043Z,50.19
2019-01-31T10:34:34.048Z,50.65
2019-01-31T10:37:30.415Z,55.11
2019-01-31T10:40:16.132Z,57.64
2019-01-31T10:43:24.745Z,58.06
2019-01-31T10:46:08.260Z,57.07
2019-01-31T10:49:00.503Z,57.67
2019-01-31T10:52:10.532Z,59.67
2019-01-31T10:55:22.880Z,52.16
2019-01-31T10:58:36.303Z,51.67
2019-01-31T11:02:03.234Z,50.49
2019-01-31T11:05:04.058Z,49.41
2019-01-31T11:08:12.834Z,49.99
2019-01-31T11:11:15.491Z,49.53
2019-01-31T11:14:29.942Z,52.35
2019-01-31T11:17:54.303Z,48.30
2019-01-31T11:21:12.742Z,48.71
2019-01-31T11:24:22.105Z,49.04
2019-01-31T11:27:44.203Z,48.30
2019-01-31T11:30:39.671Z,54.76
2019-01-31T11:34:00.243Z,49.52
2019-01-31T11:36:49.493Z,54.16
2019-01-31T11:39:56.615Z,54.58
2019-01-31T11:42:55.843Z,54.90
2019-01-31T11:46:10.924Z,47.73
2019-01-31T11:49:21.555Z,46.67
2019-01-31T11:52:51.004Z,51.26
2019-01-31T11:55:27.584Z,53.43
2019-01-31T11:58:24.255Z,47.23
2019-01-31T12:00:54.501Z,46.06
2019-01-31T12:03:25.168Z,45.70
2019-01-31T12:05:56.948Z,44.20
2019-01-31T12:08:28.449Z,47.13
2019-01-31T12:10:58.722Z,51.48
2019-01-31T12:13:29.502Z,52.19
2019-01-31T12:16:00.151Z,53.00
2019-01-31T12:18:31.618Z,53.67
2019-01-31T12:21:01.868Z,53.73
2019-01-31T12:23:32.524Z,51.25
2019-01-31T12:26:06.190Z,47.33
2019-01-31T12:28:36.613Z,48.56
2019-01-31T12:31:06.982Z,48.06
2019-01-31T12:33:37.308Z,51.17
2019-01-31T12:36:08.729Z,47.68
2019-01-31T12:38:41.337Z,47.82
2019-01-31T12:41:11.809Z,48.17
2019-01-31T12:43:44.253Z,50.19
2019-01-31T12:46:14.820Z,51.15
2019-01-31T12:48:45.213Z,50.84
2019-01-31T12:51:15.487Z,45.29
2019-01-31T12:53:45.866Z,44.98
2019-01-31T12:56:16.087Z,47.49
2019-01-31T12:58:46.352Z,51.31
2019-01-31T13:01:16.522Z,51.50
2019-01-31T13:03:47.574Z,52.05
2019-01-31T13:06:18.273Z,51.57
2019-01-31T13:08:48.823Z,51.73
2019-01-31T13:11:19.500Z,51.46
2019-01-31T13:13:50.451Z,50.77
2019-01-31T13:16:20.933Z,50.63
2019-01-31T13:18:51.301Z,50.23
2019-01-31T13:21:21.541Z,50.77
2019-01-31T13:23:53.276Z,51.05
2019-01-31T13:26:23.730Z,49.53
2019-01-31T13:28:54.235Z,50.47
2019-01-31T13:31:24.571Z,51.00
2019-01-31T13:33:55.114Z,52.19
2019-01-31T13:36:25.693Z,52.62
2019-01-31T13:38:56.135Z,53.56
2019-01-31T13:41:26.450Z,53.24
2019-01-31T13:43:57.881Z,53.01
2019-01-31T13:46:28.302Z,52.73
2019-01-31T13:48:59.098Z,52.92
2019-01-31T13:51:29.653Z,53.34
2019-01-31T13:54:00.022Z,53.42
2019-01-31T13:56:30.245Z,51.59
2019-01-31T13:59:00.591Z,52.18
2019-01-31T14:01:30.902Z,50.11
2019-01-31T14:04:01.293Z,50.80
2019-01-31T14:06:31.496Z,52.82
2019-01-31T14:09:02.003Z,54.70
2019-01-31T14:11:32.335Z,55.78
2019-01-31T14:14:09.206Z,55.63
2019-01-31T14:16:35.023Z,56.37
2019-01-31T14:19:05.245Z,56.05
2019-01-31T14:21:35.428Z,55.85
2019-01-31T14:24:06.305Z,54.95
2019-01-31T14:26:36.542Z,55.99
2019-01-31T14:29:07.379Z,56.95
2019-01-31T14:31:39.452Z,57.86
2019-01-31T14:34:09.736Z,58.59
2019-01-31T14:36:40.012Z,59.12
2019-01-31T14:39:11.218Z,59.69
2019-01-31T14:41:42.837Z,59.44
2019-01-31T14:44:20.610Z,59.96
2019-01-31T14:46:45.862Z,60.40
2019-01-31T14:49:16.645Z,60.77
2019-01-31T14:51:46.979Z,61.62
2019-01-31T14:54:17.452Z,61.16
2019-01-31T14:56:47.653Z,61.62
2019-01-31T14:59:18.221Z,60.95
2019-01-31T15:01:51.247Z,61.31
2019-01-31T15:04:21.837Z,61.79
2019-01-31T15:06:52.244Z,62.06
2019-01-31T15:09:22.864Z,62.07
2019-01-31T15:11:53.425Z,62.36
2019-01-31T15:14:31.592Z,62.49
2019-01-31T15:16:56.184Z,62.45
2019-01-31T15:19:26.459Z,62.98
2019-01-31T15:21:56.881Z,63.57
2019-01-31T15:24:28.709Z,63.83
2019-01-31T15:26:59.031Z,63.43
2019-01-31T15:29:30.442Z,64.49
2019-01-31T15:32:03.217Z,64.39
2019-01-31T15:34:33.501Z,64.40
2019-01-31T15:37:03.820Z,64.55
2019-01-31T15:39:34.225Z,64.14
2019-01-31T15:42:04.450Z,64.35
2019-01-31T15:44:43.077Z,64.66
2019-01-31T15:47:06.724Z,64.54
2019-01-31T15:49:37.623Z,64.50
2019-01-31T15:52:08.293Z,64.45
2019-01-31T15:54:39.488Z,64.43
2019-01-31T15:57:16.318Z,64.45
2019-01-31T15:59:42.054Z,64.82
2019-01-31T16:02:14.700Z,65.65
2019-01-31T16:04:45.058Z,66.33
2019-01-31T16:07:15.371Z,66.70
2019-01-31T16:09:45.618Z,66.25
2019-01-31T16:12:16.296Z,66.67
2019-01-31T16:14:54.513Z,67.10
2019-01-31T16:17:18.957Z,67.12
2019-01-31T16:19:49.156Z,67.44
2019-01-31T16:22:20.981Z,67.95
2019-01-31T16:24:51.331Z,67.77
2019-01-31T16:27:21.535Z,68.55
2019-01-31T16:29:52.044Z,68.48
2019-01-31T16:32:23.419Z,68.92
2019-01-31T16:34:53.681Z,68.65
2019-01-31T16:37:25.387Z,69.41
2019-01-31T16:39:55.776Z,69.53
2019-01-31T16:42:26.061Z,69.68
2019-01-31T16:45:06.331Z,69.84
2019-01-31T16:47:28.531Z,69.89
2019-01-31T16:49:58.776Z,69.93
2019-01-31T16:52:29.007Z,70.28
2019-01-31T16:55:00.692Z,70.56
2019-01-31T16:57:33.208Z,70.36
2019-01-31T17:00:04.661Z,70.23
2019-01-31T17:02:35.157Z,70.42
2019-01-31T17:05:06.328Z,70.29
2019-01-31T17:07:37.804Z,69.97
2019-01-31T17:10:08.433Z,70.50
2019-01-31T17:12:38.661Z,70.96
2019-01-31T17:15:17.683Z,71.18
2019-01-31T17:17:42.042Z,71.44
2019-01-31T17:20:19.190Z,71.87
2019-01-31T17:22:50.533Z,72.16
2019-01-31T17:25:21.310Z,72.42
2019-01-31T17:27:51.693Z,72.92
2019-01-31T17:30:24.625Z,73.01
2019-01-31T17:32:55.068Z,73.14
2019-01-31T17:35:25.711Z,73.29
2019-01-31T17:37:56.023Z,73.37
2019-01-31T17:40:29.964Z,73.49
2019-01-31T17:43:00.182Z,73.81
2019-01-31T17:45:31.073Z,73.90
2019-01-31T17:48:01.786Z,74.01
2019-01-31T17:50:32.011Z,74.23
2019-01-31T17:53:02.255Z,74.34
2019-01-31T17:55:32.721Z,74.45
2019-01-31T17:58:02.944Z,74.55
2019-01-31T18:00:53.924Z,74.66
2019-01-31T18:03:25.289Z,74.65
2019-01-31T18:05:55.628Z,74.45
2019-01-31T18:08:27.121Z,74.70
2019-01-31T18:10:57.649Z,74.80
2019-01-31T18:13:27.992Z,74.78
2019-01-31T18:15:58.432Z,75.19
2019-01-31T18:18:29.215Z,75.22
2019-01-31T18:20:59.678Z,75.81
2019-01-31T18:23:29.915Z,76.21
2019-01-31T18:26:00.337Z,76.66
2019-01-31T18:28:30.575Z,77.42
2019-01-31T18:31:00.916Z,77.08
2019-01-31T18:33:31.201Z,77.53
2019-01-31T18:36:01.562Z,77.79
2019-01-31T18:38:31.736Z,78.15
2019-01-31T18:41:02.258Z,78.40
2019-01-31T18:43:32.733Z,78.30
2019-01-31T18:46:03.095Z,78.71
2019-01-31T18:48:33.394Z,78.99
2019-01-31T18:51:03.805Z,79.28
2019-01-31T18:53:34.170Z,79.54
2019-01-31T18:56:05.017Z,79.67
2019-01-31T18:58:35.595Z,79.95
2019-01-31T19:01:06.383Z,80.06
2019-01-31T19:03:36.775Z,80.15
2019-01-31T19:06:07.196Z,80.24
2019-01-31T19:08:37.666Z,80.42
2019-01-31T19:11:07.876Z,80.27
2019-01-31T19:13:38.293Z,80.47
2019-01-31T19:16:09.129Z,80.69
2019-01-31T19:18:39.670Z,80.63
2019-01-31T19:21:11.284Z,80.79
2019-01-31T19:23:41.944Z,80.90
2019-01-31T19:26:12.272Z,81.05
2019-01-31T19:28:42.536Z,81.10
2019-01-31T19:31:13.055Z,81.07
2019-01-31T19:33:44.538Z,81.14
2019-01-31T19:36:14.865Z,81.41
2019-01-31T19:38:45.080Z,81.60
2019-01-31T19:41:15.280Z,81.37
2019-01-31T19:43:45.504Z,81.40
2019-01-31T19:46:17.391Z,81.52
2019-01-31T19:48:48.027Z,81.79
2019-01-31T19:51:19.151Z,81.79
2019-01-31T19:53:49.467Z,82.23
2019-01-31T19:56:19.787Z,82.33
2019-01-31T19:58:50.224Z,82.23
2019-01-31T20:01:20.454Z,81.87
2019-01-31T20:03:50.695Z,82.34
2019-01-31T20:06:21.460Z,82.38
2019-01-31T20:08:53.727Z,82.30
2019-01-31T20:11:25.198Z,82.48
2019-01-31T20:13:55.416Z,82.43
2019-01-31T20:16:29.064Z,82.40
2019-01-31T20:18:57.711Z,82.06
2019-01-31T20:21:28.209Z,82.14
2019-01-31T20:23:58.882Z,82.12
2019-01-31T20:26:29.164Z,82.55
2019-01-31T20:28:59.464Z,82.54
2019-01-31T20:31:30.142Z,82.82
2019-01-31T20:34:00.397Z,82.94
2019-01-31T20:36:30.579Z,82.67
2019-01-31T20:39:00.904Z,82.83
2019-01-31T20:41:32.116Z,82.89
2019-01-31T20:44:02.423Z,82.45
2019-01-31T20:46:40.040Z,82.48
2019-01-31T20:49:06.004Z,82.45
2019-01-31T20:51:36.257Z,82.81
2019-01-31T20:54:06.758Z,82.92
2019-01-31T20:56:37.264Z,82.92
2019-01-31T20:59:07.456Z,83.30
2019-01-31T21:01:37.853Z,83.26
2019-01-31T21:04:08.156Z,83.08
2019-01-31T21:06:41.542Z,83.09
2019-01-31T21:09:11.905Z,83.17
2019-01-31T21:11:42.483Z,83.14
2019-01-31T21:14:12.731Z,83.24
2019-01-31T21:16:51.224Z,82.92
2019-01-31T21:19:15.376Z,83.17
2019-01-31T21:21:45.676Z,83.12
2019-01-31T21:24:16.128Z,83.38
2019-01-31T21:26:46.469Z,83.11
2019-01-31T21:29:16.705Z,83.36
2019-01-31T21:31:48.338Z,83.34
2019-01-31T21:34:18.549Z,83.31
2019-01-31T21:36:48.878Z,83.29
2019-01-31T21:39:19.139Z,83.45
2019-01-31T21:41:49.356Z,83.29
2019-01-31T21:44:19.641Z,83.56
2019-01-31T21:46:49.991Z,83.27
2019-01-31T21:49:21.475Z,83.04
2019-01-31T21:51:51.766Z,83.06
2019-01-31T21:54:23.657Z,83.23
2019-01-31T21:56:53.929Z,82.98
2019-01-31T21:59:24.162Z,82.56
2019-01-31T22:01:54.357Z,82.69
2019-01-31T22:04:24.574Z,83.17
2019-01-31T22:06:54.800Z,83.10
2019-01-31T22:09:25.055Z,83.10
2019-01-31T22:11:55.241Z,82.92
2019-01-31T22:14:25.464Z,83.07
2019-01-31T22:16:55.687Z,83.20
2019-01-31T22:19:26.148Z,83.24
2019-01-31T22:21:56.388Z,83.08
2019-01-31T22:24:26.587Z,82.95
2019-01-31T22:26:56.813Z,82.83
2019-01-31T22:29:27.004Z,82.50
2019-01-31T22:31:57.223Z,82.62
2019-01-31T22:34:27.695Z,82.31
2019-01-31T22:36:57.937Z,82.33
2019-01-31T22:39:28.119Z,82.37
2019-01-31T22:41:58.379Z,82.37
2019-01-31T22:44:28.559Z,81.76
2019-01-31T22:46:58.770Z,81.76
2019-01-31T22:49:29.075Z,81.61
2019-01-31T22:51:59.335Z,81.48
2019-01-31T22:54:29.554Z,81.76
2019-01-31T22:56:59.758Z,81.37
2019-01-31T22:59:29.969Z,81.36
2019-01-31T23:02:05.909Z,81.08
2019-01-31T23:04:36.169Z,80.95
2019-01-31T23:07:06.473Z,80.68
2019-01-31T23:09:36.663Z,81.04
2019-01-31T23:12:07.041Z,81.00
2019-01-31T23:14:37.272Z,81.12
2019-01-31T23:17:07.536Z,80.96
2019-01-31T23:19:37.987Z,80.77
2019-01-31T23:22:08.145Z,80.90
2019-01-31T23:24:38.339Z,81.10
2019-01-31T23:27:08.640Z,81.22
2019-01-31T23:29:38.870Z,81.20
2019-01-31T23:32:09.180Z,80.85
2019-01-31T23:34:39.368Z,80.99
2019-01-31T23:37:09.636Z,81.07
2019-01-31T23:39:39.841Z,81.28
2019-01-31T23:42:10.050Z,81.61
2019-01-31T23:44:40.247Z,81.40
2019-01-31T23:47:10.658Z,81.52
2019-01-31T23:49:40.932Z,81.59
2019-01-31T23:52:11.643Z,81.50
2019-01-31T23:54:41.928Z,81.53
2019-01-31T23:57:12.094Z,81.69
2019-01-31T23:59:42.254Z,81.70
